PKDNI WAJJ-WARR
Flight info
| Callsign | PKDNI |
|---|---|
| Flight time | 3h 48m |
| Altitude | 36000 |
| Route | LAVAR W71 KMN W65 AMN W53 HOLBA/N0456F380 W53 MKS T15 ENDOG T16 KOLTA |
| Aircraft | A320/M-SDE3FGHIRWY/LB1 |
Departure
| Time | 2026-04-27 01:11 |
|---|---|
| Airport | Dortheys Hiyo Eluay International Airport (WAJJ) |
Arrival
| Time | 2026-04-27 05:00 |
|---|---|
| Airport | Juanda International Airport (WARR) |
| Time | Latitude | Longitude | Altitude | Speed | Heading |
|---|---|---|---|---|---|
| 2026-04-27 00:52 | -2.57125 | 140.51277 | 304 ft | 0 kts | 36° |
| 2026-04-27 01:04 | -2.57127 | 140.51275 | 303 ft | 2 kts | 36° |
| 2026-04-27 01:05 | -2.57142 | 140.51265 | 303 ft | 3 kts | 33° |
| 2026-04-27 01:05 | -2.57159 | 140.51254 | 303 ft | 3 kts | 27° |
| 2026-04-27 01:05 | -2.57177 | 140.51246 | 303 ft | 3 kts | 14° |
| 2026-04-27 01:05 | -2.57196 | 140.51244 | 303 ft | 3 kts | 335° |
| 2026-04-27 01:06 | -2.57204 | 140.51249 | 303 ft | 0 kts | 307° |
| 2026-04-27 01:08 | -2.57199 | 140.51243 | 303 ft | 2 kts | 307° |
| 2026-04-27 01:08 | -2.57185 | 140.51224 | 303 ft | 4 kts | 307° |
| 2026-04-27 01:08 | -2.57162 | 140.51194 | 303 ft | 7 kts | 307° |
| 2026-04-27 01:09 | -2.57130 | 140.51151 | 303 ft | 9 kts | 306° |
| 2026-04-27 01:09 | -2.57112 | 140.51127 | 303 ft | 2 kts | 306° |
| 2026-04-27 01:09 | -2.57103 | 140.51109 | 303 ft | 4 kts | 277° |
| 2026-04-27 01:09 | -2.57104 | 140.51100 | 303 ft | 0 kts | 260° |
| 2026-04-27 01:10 | -2.57116 | 140.51072 | 303 ft | 9 kts | 237° |
| 2026-04-27 01:10 | -2.57160 | 140.51017 | 303 ft | 11 kts | 230° |
| 2026-04-27 01:10 | -2.57221 | 140.51004 | 303 ft | 11 kts | 121° |
| 2026-04-27 01:10 | -2.57271 | 140.51074 | 303 ft | 14 kts | 127° |
| 2026-04-27 01:11 | -2.57373 | 140.51210 | 303 ft | 51 kts | 127° |
| 2026-04-27 01:11 | -2.57736 | 140.51697 | 304 ft | 122 kts | 126° |
| 2026-04-27 01:11 | -2.58368 | 140.52541 | 327 ft | 175 kts | 127° |
| 2026-04-27 01:11 | -2.59094 | 140.53482 | 1031 ft | 168 kts | 128° |
| 2026-04-27 01:12 | -2.59806 | 140.54387 | 1646 ft | 171 kts | 128° |
| 2026-04-27 01:12 | -2.60568 | 140.55383 | 1853 ft | 190 kts | 126° |
| 2026-04-27 01:12 | -2.61394 | 140.56488 | 2155 ft | 205 kts | 127° |
| 2026-04-27 01:12 | -2.62297 | 140.57683 | 2440 ft | 224 kts | 127° |
| 2026-04-27 01:13 | -2.63284 | 140.58963 | 2848 ft | 240 kts | 128° |
| 2026-04-27 01:13 | -2.64348 | 140.60325 | 3277 ft | 256 kts | 132° |
| 2026-04-27 01:13 | -2.65780 | 140.61440 | 3736 ft | 268 kts | 158° |
| 2026-04-27 01:13 | -2.67602 | 140.61891 | 4386 ft | 272 kts | 175° |
| 2026-04-27 01:14 | -2.69482 | 140.61724 | 5082 ft | 274 kts | 200° |
| 2026-04-27 01:14 | -2.71063 | 140.60736 | 5757 ft | 275 kts | 228° |
| 2026-04-27 01:14 | -2.72021 | 140.59098 | 6421 ft | 276 kts | 254° |
| 2026-04-27 01:14 | -2.72333 | 140.57199 | 7091 ft | 279 kts | 265° |
| 2026-04-27 01:15 | -2.72496 | 140.55256 | 7742 ft | 282 kts | 265° |
| 2026-04-27 01:15 | -2.72685 | 140.53285 | 8359 ft | 286 kts | 264° |
| 2026-04-27 01:15 | -2.72939 | 140.51305 | 8967 ft | 289 kts | 262° |
| 2026-04-27 01:15 | -2.73234 | 140.49300 | 9571 ft | 292 kts | 262° |
| 2026-04-27 01:16 | -2.73530 | 140.47279 | 10141 ft | 296 kts | 262° |
| 2026-04-27 01:16 | -2.73822 | 140.45197 | 10491 ft | 309 kts | 262° |
| 2026-04-27 01:16 | -2.74117 | 140.43021 | 10777 ft | 322 kts | 263° |
| 2026-04-27 01:16 | -2.74422 | 140.40749 | 11021 ft | 336 kts | 263° |
| 2026-04-27 01:17 | -2.74745 | 140.38384 | 11237 ft | 350 kts | 263° |
| 2026-04-27 01:17 | -2.75084 | 140.35936 | 11556 ft | 359 kts | 263° |
| 2026-04-27 01:17 | -2.75420 | 140.33454 | 12061 ft | 362 kts | 263° |
| 2026-04-27 01:17 | -2.75723 | 140.30946 | 12563 ft | 365 kts | 264° |
| 2026-04-27 01:18 | -2.76008 | 140.28419 | 13047 ft | 368 kts | 264° |
| 2026-04-27 01:18 | -2.76299 | 140.25864 | 13523 ft | 371 kts | 264° |
| 2026-04-27 01:18 | -2.76607 | 140.23285 | 13992 ft | 374 kts | 263° |
| 2026-04-27 01:18 | -2.76926 | 140.20698 | 14451 ft | 377 kts | 263° |
| 2026-04-27 01:19 | -2.77245 | 140.18120 | 14893 ft | 380 kts | 263° |
| 2026-04-27 01:19 | -2.77567 | 140.15485 | 15330 ft | 383 kts | 263° |
| 2026-04-27 01:19 | -2.77889 | 140.12830 | 15767 ft | 386 kts | 263° |
| 2026-04-27 01:19 | -2.78212 | 140.10156 | 16201 ft | 388 kts | 263° |
| 2026-04-27 01:20 | -2.78537 | 140.07462 | 16614 ft | 391 kts | 263° |
| 2026-04-27 01:20 | -2.78866 | 140.04748 | 17026 ft | 394 kts | 263° |
| 2026-04-27 01:20 | -2.79199 | 140.02022 | 17437 ft | 397 kts | 263° |
| 2026-04-27 01:20 | -2.79532 | 139.99271 | 17833 ft | 400 kts | 263° |
| 2026-04-27 01:21 | -2.79866 | 139.96500 | 18212 ft | 403 kts | 263° |
| 2026-04-27 01:21 | -2.80204 | 139.93708 | 18594 ft | 405 kts | 263° |
| 2026-04-27 01:21 | -2.80544 | 139.90899 | 18971 ft | 408 kts | 263° |
| 2026-04-27 01:21 | -2.80887 | 139.88078 | 19341 ft | 410 kts | 263° |
| 2026-04-27 01:22 | -2.81227 | 139.85261 | 19699 ft | 413 kts | 263° |
| 2026-04-27 01:22 | -2.81573 | 139.82407 | 20052 ft | 415 kts | 263° |
| 2026-04-27 01:22 | -2.81921 | 139.79531 | 20404 ft | 417 kts | 263° |
| 2026-04-27 01:22 | -2.82271 | 139.76638 | 20723 ft | 420 kts | 263° |
| 2026-04-27 01:23 | -2.82621 | 139.73725 | 21041 ft | 423 kts | 263° |
| 2026-04-27 01:23 | -2.82975 | 139.70790 | 21358 ft | 425 kts | 263° |
| 2026-04-27 01:23 | -2.83331 | 139.67851 | 21669 ft | 427 kts | 263° |
| 2026-04-27 01:23 | -2.83689 | 139.64894 | 21966 ft | 429 kts | 263° |
| 2026-04-27 01:24 | -2.84046 | 139.61929 | 22259 ft | 431 kts | 263° |
| 2026-04-27 01:24 | -2.84407 | 139.58937 | 22547 ft | 433 kts | 263° |
| 2026-04-27 01:24 | -2.84767 | 139.55944 | 22829 ft | 435 kts | 263° |
| 2026-04-27 01:24 | -2.85129 | 139.52931 | 23094 ft | 437 kts | 263° |
| 2026-04-27 01:25 | -2.85495 | 139.49903 | 23340 ft | 439 kts | 263° |
| 2026-04-27 01:25 | -2.85863 | 139.46854 | 23596 ft | 441 kts | 263° |
| 2026-04-27 01:25 | -2.86231 | 139.43806 | 23841 ft | 443 kts | 263° |
| 2026-04-27 01:25 | -2.86603 | 139.40739 | 24086 ft | 445 kts | 263° |
| 2026-04-27 01:26 | -2.86971 | 139.37696 | 24323 ft | 446 kts | 263° |
| 2026-04-27 01:26 | -2.87342 | 139.34608 | 24564 ft | 448 kts | 263° |
| 2026-04-27 01:26 | -2.87716 | 139.31473 | 24781 ft | 450 kts | 263° |
| 2026-04-27 01:26 | -2.88084 | 139.28400 | 25005 ft | 451 kts | 263° |
| 2026-04-27 01:27 | -2.88462 | 139.25276 | 25242 ft | 453 kts | 263° |
| 2026-04-27 01:27 | -2.88843 | 139.22143 | 25476 ft | 454 kts | 263° |
| 2026-04-27 01:27 | -2.89222 | 139.19007 | 25703 ft | 456 kts | 263° |
| 2026-04-27 01:27 | -2.89600 | 139.15853 | 25923 ft | 457 kts | 263° |
| 2026-04-27 01:28 | -2.89979 | 139.12686 | 26131 ft | 459 kts | 263° |
| 2026-04-27 01:28 | -2.90360 | 139.09509 | 26346 ft | 461 kts | 263° |
| 2026-04-27 01:28 | -2.90743 | 139.06328 | 26569 ft | 462 kts | 263° |
| 2026-04-27 01:28 | -2.91128 | 139.03131 | 26787 ft | 463 kts | 263° |
| 2026-04-27 01:29 | -2.91514 | 138.99924 | 26996 ft | 465 kts | 263° |
| 2026-04-27 01:29 | -2.91900 | 138.96704 | 27197 ft | 467 kts | 263° |
| 2026-04-27 01:29 | -2.92288 | 138.93474 | 27403 ft | 468 kts | 263° |
| 2026-04-27 01:29 | -2.92678 | 138.90233 | 27618 ft | 470 kts | 263° |
| 2026-04-27 01:30 | -2.93069 | 138.86984 | 27826 ft | 471 kts | 263° |
| 2026-04-27 01:30 | -2.93460 | 138.83723 | 28013 ft | 473 kts | 263° |
| 2026-04-27 01:30 | -2.93852 | 138.80450 | 28217 ft | 474 kts | 263° |
| 2026-04-27 01:30 | -2.94247 | 138.77168 | 28426 ft | 476 kts | 263° |
| 2026-04-27 01:31 | -2.94641 | 138.73876 | 28629 ft | 477 kts | 263° |
| 2026-04-27 01:31 | -2.95036 | 138.70576 | 28836 ft | 478 kts | 263° |
| 2026-04-27 01:31 | -2.95428 | 138.67303 | 29034 ft | 479 kts | 263° |
| 2026-04-27 01:31 | -2.95826 | 138.63985 | 29234 ft | 481 kts | 263° |
| 2026-04-27 01:32 | -2.96225 | 138.60657 | 29412 ft | 482 kts | 262° |
| 2026-04-27 01:32 | -2.96625 | 138.57317 | 29593 ft | 484 kts | 262° |
| 2026-04-27 01:32 | -2.97025 | 138.53975 | 29777 ft | 486 kts | 263° |
| 2026-04-27 01:32 | -2.97425 | 138.50619 | 30023 ft | 485 kts | 262° |
| 2026-04-27 01:33 | -2.97827 | 138.47268 | 30267 ft | 485 kts | 263° |
| 2026-04-27 01:33 | -2.98228 | 138.43917 | 30506 ft | 485 kts | 263° |
| 2026-04-27 01:33 | -2.98628 | 138.40570 | 30754 ft | 484 kts | 263° |
| 2026-04-27 01:33 | -2.99029 | 138.37216 | 30989 ft | 484 kts | 263° |
| 2026-04-27 01:34 | -2.99430 | 138.33865 | 31205 ft | 484 kts | 263° |
| 2026-04-27 01:34 | -2.99828 | 138.30520 | 31454 ft | 484 kts | 263° |
| 2026-04-27 01:34 | -3.00228 | 138.27177 | 31699 ft | 483 kts | 263° |
| 2026-04-27 01:34 | -3.00628 | 138.23836 | 31912 ft | 484 kts | 263° |
| 2026-04-27 01:35 | -3.01022 | 138.20537 | 32137 ft | 483 kts | 263° |
| 2026-04-27 01:35 | -3.01421 | 138.17197 | 32379 ft | 483 kts | 263° |
| 2026-04-27 01:35 | -3.01825 | 138.13821 | 32579 ft | 483 kts | 263° |
| 2026-04-27 01:35 | -3.02223 | 138.10482 | 32811 ft | 483 kts | 263° |
| 2026-04-27 01:36 | -3.02613 | 138.07190 | 33028 ft | 483 kts | 264° |
| 2026-04-27 01:36 | -3.03009 | 138.03852 | 33229 ft | 483 kts | 264° |
| 2026-04-27 01:36 | -3.03407 | 138.00511 | 33457 ft | 482 kts | 264° |
| 2026-04-27 01:36 | -3.03804 | 137.97177 | 33668 ft | 482 kts | 264° |
| 2026-04-27 01:37 | -3.04201 | 137.93851 | 33899 ft | 481 kts | 264° |
| 2026-04-27 01:37 | -3.04600 | 137.90523 | 34086 ft | 481 kts | 264° |
| 2026-04-27 01:37 | -3.04997 | 137.87199 | 34299 ft | 481 kts | 264° |
| 2026-04-27 01:37 | -3.05392 | 137.83886 | 34499 ft | 480 kts | 264° |
| 2026-04-27 01:38 | -3.05788 | 137.80563 | 34740 ft | 479 kts | 264° |
| 2026-04-27 01:38 | -3.06180 | 137.77264 | 34938 ft | 478 kts | 264° |
| 2026-04-27 01:38 | -3.06567 | 137.73996 | 35125 ft | 478 kts | 264° |
| 2026-04-27 01:38 | -3.06960 | 137.70695 | 35302 ft | 477 kts | 264° |
| 2026-04-27 01:39 | -3.07352 | 137.67400 | 35482 ft | 477 kts | 264° |
| 2026-04-27 01:39 | -3.07743 | 137.64107 | 35694 ft | 475 kts | 264° |
| 2026-04-27 01:39 | -3.08135 | 137.60822 | 35862 ft | 475 kts | 264° |
| 2026-04-27 01:40 | -3.08913 | 137.54249 | 35913 ft | 475 kts | 264° |
| 2026-04-27 01:40 | -3.09693 | 137.47694 | 35913 ft | 475 kts | 264° |
| 2026-04-27 01:41 | -3.10473 | 137.41132 | 35912 ft | 475 kts | 264° |
| 2026-04-27 01:41 | -3.11245 | 137.34607 | 35912 ft | 475 kts | 264° |
| 2026-04-27 01:42 | -3.12022 | 137.28045 | 35921 ft | 474 kts | 264° |
| 2026-04-27 01:42 | -3.12801 | 137.21487 | 35924 ft | 474 kts | 264° |
| 2026-04-27 01:43 | -3.13576 | 137.14929 | 35946 ft | 474 kts | 264° |
| 2026-04-27 01:43 | -3.14351 | 137.08386 | 35939 ft | 474 kts | 264° |
| 2026-04-27 01:44 | -3.15126 | 137.01836 | 35925 ft | 473 kts | 264° |
| 2026-04-27 01:44 | -3.15897 | 136.95291 | 35899 ft | 474 kts | 264° |
| 2026-04-27 01:45 | -3.16669 | 136.88778 | 35887 ft | 474 kts | 264° |
| 2026-04-27 01:45 | -3.17448 | 136.82186 | 35884 ft | 474 kts | 264° |
| 2026-04-27 01:46 | -3.18214 | 136.75679 | 35891 ft | 474 kts | 264° |
| 2026-04-27 01:46 | -3.18985 | 136.69134 | 35893 ft | 474 kts | 264° |
| 2026-04-27 01:47 | -3.19757 | 136.62583 | 35914 ft | 473 kts | 264° |
| 2026-04-27 01:47 | -3.20529 | 136.56036 | 35943 ft | 473 kts | 264° |
| 2026-04-27 01:48 | -3.21300 | 136.49506 | 35942 ft | 473 kts | 264° |
| 2026-04-27 01:48 | -3.21938 | 136.44076 | 35938 ft | 473 kts | 264° |
| 2026-04-27 01:49 | -3.22706 | 136.37538 | 35933 ft | 473 kts | 264° |
| 2026-04-27 01:49 | -3.23473 | 136.31004 | 35945 ft | 472 kts | 263° |
| 2026-04-27 01:50 | -3.24242 | 136.24485 | 35941 ft | 472 kts | 263° |
| 2026-04-27 01:50 | -3.25006 | 136.17961 | 35921 ft | 472 kts | 263° |
| 2026-04-27 01:51 | -3.25772 | 136.11442 | 35892 ft | 472 kts | 263° |
| 2026-04-27 01:51 | -3.26537 | 136.04915 | 35882 ft | 472 kts | 263° |
| 2026-04-27 01:52 | -3.27297 | 135.98431 | 35878 ft | 472 kts | 263° |
| 2026-04-27 01:52 | -3.28062 | 135.91902 | 35883 ft | 472 kts | 263° |
| 2026-04-27 01:53 | -3.28826 | 135.85374 | 35893 ft | 472 kts | 263° |
| 2026-04-27 01:53 | -3.29592 | 135.78846 | 35902 ft | 472 kts | 263° |
| 2026-04-27 01:54 | -3.30355 | 135.72319 | 35913 ft | 472 kts | 263° |
| 2026-04-27 01:54 | -3.31114 | 135.65839 | 35930 ft | 472 kts | 263° |
| 2026-04-27 01:55 | -3.31874 | 135.59312 | 35952 ft | 472 kts | 264° |
| 2026-04-27 01:55 | -3.32638 | 135.52782 | 35952 ft | 471 kts | 263° |
| 2026-04-27 01:56 | -3.33777 | 135.43020 | 35919 ft | 471 kts | 264° |
| 2026-04-27 01:56 | -3.34534 | 135.36517 | 35878 ft | 471 kts | 264° |
| 2026-04-27 01:57 | -3.35293 | 135.30004 | 35866 ft | 471 kts | 264° |
| 2026-04-27 01:57 | -3.36053 | 135.23480 | 35862 ft | 473 kts | 264° |
| 2026-04-27 01:58 | -3.36818 | 135.16924 | 35901 ft | 477 kts | 264° |
| 2026-04-27 01:58 | -3.37590 | 135.10282 | 35913 ft | 484 kts | 264° |
| 2026-04-27 01:59 | -3.38362 | 135.03629 | 35914 ft | 484 kts | 264° |
| 2026-04-27 01:59 | -3.39140 | 134.96936 | 35917 ft | 484 kts | 264° |
| 2026-04-27 02:00 | -3.39919 | 134.90243 | 35916 ft | 483 kts | 264° |
| 2026-04-27 02:00 | -3.40695 | 134.83568 | 35897 ft | 482 kts | 264° |
| 2026-04-27 02:01 | -3.41469 | 134.76889 | 35861 ft | 485 kts | 264° |
| 2026-04-27 02:01 | -3.42247 | 134.70153 | 35900 ft | 487 kts | 264° |
| 2026-04-27 02:02 | -3.43023 | 134.63457 | 35956 ft | 487 kts | 264° |
| 2026-04-27 02:02 | -3.43804 | 134.56735 | 35950 ft | 484 kts | 264° |
| 2026-04-27 02:03 | -3.44573 | 134.50072 | 35950 ft | 481 kts | 264° |
| 2026-04-27 02:03 | -3.45339 | 134.43430 | 35918 ft | 479 kts | 264° |
| 2026-04-27 02:04 | -3.46098 | 134.36875 | 35877 ft | 478 kts | 264° |
| 2026-04-27 02:04 | -3.46865 | 134.30237 | 35865 ft | 478 kts | 264° |
| 2026-04-27 02:05 | -3.47627 | 134.23608 | 35864 ft | 482 kts | 264° |
| 2026-04-27 02:05 | -3.48400 | 134.16911 | 35909 ft | 485 kts | 264° |
| 2026-04-27 02:06 | -3.49176 | 134.10195 | 35957 ft | 486 kts | 264° |
| 2026-04-27 02:06 | -3.49946 | 134.03505 | 35955 ft | 482 kts | 264° |
| 2026-04-27 02:07 | -3.50710 | 133.96850 | 35950 ft | 479 kts | 264° |
| 2026-04-27 02:07 | -3.51473 | 133.90236 | 35922 ft | 477 kts | 264° |
| 2026-04-27 02:08 | -3.52230 | 133.83639 | 35880 ft | 477 kts | 264° |
| 2026-04-27 02:08 | -3.52989 | 133.77043 | 35866 ft | 477 kts | 264° |
| 2026-04-27 02:09 | -3.53748 | 133.70440 | 35862 ft | 480 kts | 264° |
| 2026-04-27 02:09 | -3.54512 | 133.63765 | 35894 ft | 484 kts | 264° |
| 2026-04-27 02:10 | -3.55284 | 133.57053 | 35953 ft | 486 kts | 264° |
| 2026-04-27 02:10 | -3.56051 | 133.50340 | 35951 ft | 484 kts | 264° |
| 2026-04-27 02:11 | -3.56810 | 133.43713 | 35953 ft | 480 kts | 264° |
| 2026-04-27 02:11 | -3.57569 | 133.37077 | 35919 ft | 479 kts | 264° |
| 2026-04-27 02:12 | -3.58328 | 133.30454 | 35878 ft | 478 kts | 264° |
| 2026-04-27 02:12 | -3.59086 | 133.23832 | 35864 ft | 479 kts | 264° |
| 2026-04-27 02:13 | -3.59843 | 133.17184 | 35863 ft | 483 kts | 264° |
| 2026-04-27 02:13 | -3.60607 | 133.10476 | 35912 ft | 486 kts | 264° |
| 2026-04-27 02:14 | -3.61372 | 133.03771 | 35952 ft | 487 kts | 264° |
| 2026-04-27 02:14 | -3.62146 | 132.97011 | 35954 ft | 484 kts | 264° |
| 2026-04-27 02:15 | -3.62903 | 132.90332 | 35947 ft | 481 kts | 264° |
| 2026-04-27 02:15 | -3.63654 | 132.83726 | 35911 ft | 480 kts | 264° |
| 2026-04-27 02:16 | -3.64413 | 132.77088 | 35873 ft | 479 kts | 264° |
| 2026-04-27 02:16 | -3.65165 | 132.70454 | 35860 ft | 480 kts | 264° |
| 2026-04-27 02:17 | -3.65923 | 132.63768 | 35869 ft | 485 kts | 264° |
| 2026-04-27 02:17 | -3.66689 | 132.57039 | 35926 ft | 488 kts | 264° |
| 2026-04-27 02:18 | -3.67455 | 132.50293 | 35949 ft | 486 kts | 264° |
| 2026-04-27 02:18 | -3.68210 | 132.43627 | 35947 ft | 482 kts | 264° |
| 2026-04-27 02:19 | -3.68964 | 132.36979 | 35936 ft | 479 kts | 264° |
| 2026-04-27 02:19 | -3.69712 | 132.30367 | 35895 ft | 478 kts | 264° |
| 2026-04-27 02:20 | -3.70461 | 132.23756 | 35856 ft | 477 kts | 264° |
| 2026-04-27 02:20 | -3.71208 | 132.17145 | 35862 ft | 478 kts | 264° |
| 2026-04-27 02:21 | -3.71960 | 132.10500 | 35862 ft | 483 kts | 264° |
| 2026-04-27 02:21 | -3.72710 | 132.03833 | 35915 ft | 486 kts | 264° |
| 2026-04-27 02:22 | -3.73471 | 131.97096 | 35941 ft | 485 kts | 264° |
| 2026-04-27 02:22 | -3.74228 | 131.90407 | 35941 ft | 481 kts | 264° |
| 2026-04-27 02:23 | -3.74975 | 131.83769 | 35933 ft | 478 kts | 264° |
| 2026-04-27 02:23 | -3.75717 | 131.77158 | 35894 ft | 477 kts | 264° |
| 2026-04-27 02:24 | -3.76453 | 131.70637 | 35853 ft | 476 kts | 264° |
| 2026-04-27 02:24 | -3.77195 | 131.64074 | 35842 ft | 476 kts | 264° |
| 2026-04-27 02:25 | -3.77933 | 131.57477 | 35848 ft | 478 kts | 264° |
| 2026-04-27 02:25 | -3.78679 | 131.50809 | 35868 ft | 484 kts | 264° |
| 2026-04-27 02:26 | -3.79433 | 131.44129 | 35928 ft | 487 kts | 264° |
| 2026-04-27 02:26 | -3.80191 | 131.37389 | 35933 ft | 485 kts | 264° |
| 2026-04-27 02:27 | -3.80936 | 131.30700 | 35934 ft | 482 kts | 264° |
| 2026-04-27 02:27 | -3.81684 | 131.24039 | 35900 ft | 480 kts | 264° |
| 2026-04-27 02:28 | -3.82428 | 131.17397 | 35859 ft | 480 kts | 264° |
| 2026-04-27 02:28 | -3.83171 | 131.10753 | 35844 ft | 480 kts | 264° |
| 2026-04-27 02:29 | -3.83914 | 131.04093 | 35844 ft | 484 kts | 264° |
| 2026-04-27 02:29 | -3.84661 | 130.97396 | 35877 ft | 488 kts | 264° |
| 2026-04-27 02:30 | -3.85424 | 130.90620 | 35936 ft | 491 kts | 264° |
| 2026-04-27 02:30 | -3.86177 | 130.83846 | 35933 ft | 487 kts | 264° |
| 2026-04-27 02:31 | -3.86924 | 130.77130 | 35929 ft | 484 kts | 264° |
| 2026-04-27 02:31 | -3.87672 | 130.70447 | 35898 ft | 482 kts | 264° |
| 2026-04-27 02:32 | -3.88411 | 130.63788 | 35858 ft | 481 kts | 264° |
| 2026-04-27 02:32 | -3.89147 | 130.57166 | 35844 ft | 481 kts | 264° |
| 2026-04-27 02:33 | -3.89891 | 130.50495 | 35841 ft | 483 kts | 264° |
| 2026-04-27 02:33 | -3.90638 | 130.43773 | 35859 ft | 488 kts | 264° |
| 2026-04-27 02:34 | -3.91386 | 130.37029 | 35918 ft | 491 kts | 264° |
| 2026-04-27 02:34 | -3.92040 | 130.31141 | 35932 ft | 490 kts | 264° |
| 2026-04-27 02:35 | -3.92787 | 130.24384 | 35930 ft | 486 kts | 264° |
| 2026-04-27 02:35 | -3.93529 | 130.17680 | 35923 ft | 483 kts | 264° |
| 2026-04-27 02:36 | -3.94143 | 130.12138 | 35889 ft | 481 kts | 264° |
| 2026-04-27 02:36 | -3.94880 | 130.05489 | 35848 ft | 480 kts | 264° |
| 2026-04-27 02:37 | -3.95613 | 129.98845 | 35837 ft | 480 kts | 264° |
| 2026-04-27 02:37 | -3.96348 | 129.92182 | 35842 ft | 482 kts | 264° |
| 2026-04-27 02:38 | -3.97090 | 129.85470 | 35850 ft | 488 kts | 264° |
| 2026-04-27 02:38 | -3.97838 | 129.78692 | 35909 ft | 491 kts | 264° |
| 2026-04-27 02:39 | -3.98585 | 129.71883 | 35928 ft | 490 kts | 264° |
| 2026-04-27 02:39 | -3.99327 | 129.65133 | 35926 ft | 486 kts | 264° |
| 2026-04-27 02:40 | -4.00064 | 129.58482 | 35914 ft | 482 kts | 264° |
| 2026-04-27 02:40 | -4.00794 | 129.51821 | 35876 ft | 480 kts | 264° |
| 2026-04-27 02:41 | -4.01523 | 129.45179 | 35838 ft | 479 kts | 264° |
| 2026-04-27 02:41 | -4.02252 | 129.38543 | 35838 ft | 480 kts | 264° |
| 2026-04-27 02:42 | -4.02981 | 129.31893 | 35836 ft | 482 kts | 264° |
| 2026-04-27 02:42 | -4.03716 | 129.25178 | 35861 ft | 487 kts | 264° |
| 2026-04-27 02:43 | -4.04457 | 129.18404 | 35921 ft | 491 kts | 264° |
| 2026-04-27 02:43 | -4.05194 | 129.11671 | 35923 ft | 488 kts | 263° |
| 2026-04-27 02:44 | -4.05934 | 129.04906 | 35924 ft | 483 kts | 264° |
| 2026-04-27 02:44 | -4.06633 | 128.98515 | 35911 ft | 480 kts | 263° |
| 2026-04-27 02:45 | -4.07359 | 128.91880 | 35870 ft | 478 kts | 264° |
| 2026-04-27 02:45 | -4.08077 | 128.85267 | 35831 ft | 478 kts | 264° |
| 2026-04-27 02:46 | -4.08799 | 128.78651 | 35837 ft | 478 kts | 263° |
| 2026-04-27 02:46 | -4.09521 | 128.72017 | 35834 ft | 480 kts | 263° |
| 2026-04-27 02:47 | -4.10251 | 128.65317 | 35843 ft | 486 kts | 263° |
| 2026-04-27 02:47 | -4.10985 | 128.58546 | 35903 ft | 490 kts | 263° |
| 2026-04-27 02:48 | -4.11716 | 128.51804 | 35924 ft | 488 kts | 263° |
| 2026-04-27 02:48 | -4.12449 | 128.45069 | 35922 ft | 484 kts | 263° |
| 2026-04-27 02:49 | -4.13173 | 128.38388 | 35913 ft | 481 kts | 263° |
| 2026-04-27 02:49 | -4.13893 | 128.31745 | 35872 ft | 479 kts | 263° |
| 2026-04-27 02:50 | -4.14612 | 128.25113 | 35831 ft | 478 kts | 263° |
| 2026-04-27 02:50 | -4.15325 | 128.18493 | 35836 ft | 478 kts | 263° |
| 2026-04-27 02:51 | -4.16045 | 128.11859 | 35831 ft | 480 kts | 263° |
| 2026-04-27 02:51 | -4.16763 | 128.05179 | 35837 ft | 485 kts | 264° |
| 2026-04-27 02:52 | -4.17488 | 127.98422 | 35883 ft | 490 kts | 263° |
| 2026-04-27 02:52 | -4.18230 | 127.91624 | 35922 ft | 491 kts | 263° |
| 2026-04-27 02:53 | -4.18950 | 127.84879 | 35924 ft | 487 kts | 264° |
| 2026-04-27 02:53 | -4.19666 | 127.78164 | 35922 ft | 483 kts | 263° |
| 2026-04-27 02:54 | -4.20382 | 127.71502 | 35884 ft | 480 kts | 263° |
| 2026-04-27 02:54 | -4.21039 | 127.65515 | 35846 ft | 478 kts | 263° |
| 2026-04-27 02:55 | -4.21748 | 127.58890 | 35833 ft | 478 kts | 264° |
| 2026-04-27 02:55 | -4.22451 | 127.52265 | 35837 ft | 479 kts | 263° |
| 2026-04-27 02:56 | -4.23169 | 127.45621 | 35833 ft | 482 kts | 263° |
| 2026-04-27 02:56 | -4.23888 | 127.38937 | 35878 ft | 488 kts | 263° |
| 2026-04-27 02:57 | -4.24609 | 127.32115 | 35927 ft | 489 kts | 263° |
| 2026-04-27 02:57 | -4.25328 | 127.25407 | 35928 ft | 485 kts | 263° |
| 2026-04-27 02:58 | -4.26045 | 127.18705 | 35927 ft | 481 kts | 263° |
| 2026-04-27 02:58 | -4.26752 | 127.12060 | 35902 ft | 478 kts | 263° |
| 2026-04-27 02:59 | -4.27454 | 127.05453 | 35861 ft | 476 kts | 263° |
| 2026-04-27 02:59 | -4.28160 | 126.98863 | 35841 ft | 475 kts | 263° |
| 2026-04-27 03:00 | -4.28869 | 126.92270 | 35837 ft | 476 kts | 263° |
| 2026-04-27 03:00 | -4.29559 | 126.85657 | 35838 ft | 478 kts | 263° |
| 2026-04-27 03:01 | -4.30271 | 126.78997 | 35846 ft | 484 kts | 263° |
| 2026-04-27 03:01 | -4.30992 | 126.72270 | 35903 ft | 487 kts | 263° |
| 2026-04-27 03:02 | -4.31701 | 126.65519 | 35929 ft | 486 kts | 263° |
| 2026-04-27 03:02 | -4.32405 | 126.58843 | 35929 ft | 482 kts | 263° |
| 2026-04-27 03:03 | -4.33466 | 126.48869 | 35906 ft | 477 kts | 263° |
| 2026-04-27 03:04 | -4.34159 | 126.42265 | 35865 ft | 475 kts | 263° |
| 2026-04-27 03:04 | -4.34749 | 126.36705 | 35847 ft | 475 kts | 263° |
| 2026-04-27 03:05 | -4.35447 | 126.30120 | 35843 ft | 475 kts | 263° |
| 2026-04-27 03:05 | -4.36146 | 126.23520 | 35846 ft | 477 kts | 263° |
| 2026-04-27 03:06 | -4.36848 | 126.16892 | 35849 ft | 481 kts | 263° |
| 2026-04-27 03:06 | -4.37552 | 126.10242 | 35901 ft | 485 kts | 263° |
| 2026-04-27 03:07 | -4.38264 | 126.03495 | 35935 ft | 486 kts | 263° |
| 2026-04-27 03:07 | -4.38969 | 125.96787 | 35938 ft | 483 kts | 263° |
| 2026-04-27 03:08 | -4.39663 | 125.90122 | 35934 ft | 479 kts | 263° |
| 2026-04-27 03:08 | -4.40360 | 125.83489 | 35900 ft | 477 kts | 263° |
| 2026-04-27 03:09 | -4.41059 | 125.76889 | 35861 ft | 476 kts | 263° |
| 2026-04-27 03:09 | -4.41749 | 125.70295 | 35852 ft | 476 kts | 263° |
| 2026-04-27 03:10 | -4.42430 | 125.63736 | 35854 ft | 477 kts | 263° |
| 2026-04-27 03:10 | -4.43128 | 125.57119 | 35853 ft | 479 kts | 263° |
| 2026-04-27 03:11 | -4.43837 | 125.50426 | 35875 ft | 485 kts | 263° |
| 2026-04-27 03:11 | -4.44531 | 125.43694 | 35935 ft | 487 kts | 263° |
| 2026-04-27 03:12 | -4.45231 | 125.36959 | 35945 ft | 484 kts | 263° |
| 2026-04-27 03:12 | -4.45937 | 125.30275 | 35947 ft | 481 kts | 263° |
| 2026-04-27 03:13 | -4.46632 | 125.23629 | 35929 ft | 478 kts | 263° |
| 2026-04-27 03:13 | -4.47311 | 125.17017 | 35862 ft | 476 kts | 263° |
| 2026-04-27 03:14 | -4.47999 | 125.10455 | 35850 ft | 475 kts | 263° |
| 2026-04-27 03:14 | -4.48481 | 125.05860 | 35857 ft | 476 kts | 263° |
| 2026-04-27 03:15 | -4.49167 | 124.99231 | 35857 ft | 478 kts | 263° |
| 2026-04-27 03:15 | -4.49845 | 124.92592 | 35855 ft | 481 kts | 263° |
| 2026-04-27 03:16 | -4.50548 | 124.85877 | 35874 ft | 487 kts | 263° |
| 2026-04-27 03:16 | -4.51253 | 124.79107 | 35932 ft | 489 kts | 263° |
| 2026-04-27 03:17 | -4.51956 | 124.72350 | 35934 ft | 485 kts | 263° |
| 2026-04-27 03:17 | -4.52637 | 124.65688 | 35936 ft | 482 kts | 263° |
| 2026-04-27 03:18 | -4.53327 | 124.59032 | 35922 ft | 478 kts | 262° |
| 2026-04-27 03:18 | -4.54013 | 124.52428 | 35882 ft | 476 kts | 262° |
| 2026-04-27 03:19 | -4.54692 | 124.45837 | 35844 ft | 475 kts | 262° |
| 2026-04-27 03:19 | -4.55367 | 124.39253 | 35848 ft | 475 kts | 262° |
| 2026-04-27 03:20 | -4.56051 | 124.32658 | 35849 ft | 476 kts | 262° |
| 2026-04-27 03:20 | -4.56729 | 124.26045 | 35846 ft | 478 kts | 263° |
| 2026-04-27 03:21 | -4.57296 | 124.20514 | 35849 ft | 482 kts | 262° |
| 2026-04-27 03:21 | -4.57992 | 124.13779 | 35885 ft | 488 kts | 262° |
| 2026-04-27 03:22 | -4.58683 | 124.06988 | 35940 ft | 489 kts | 262° |
| 2026-04-27 03:22 | -4.59381 | 124.00224 | 35936 ft | 486 kts | 262° |
| 2026-04-27 03:23 | -4.60057 | 123.93558 | 35935 ft | 482 kts | 263° |
| 2026-04-27 03:23 | -4.60741 | 123.86902 | 35928 ft | 478 kts | 262° |
| 2026-04-27 03:24 | -4.61420 | 123.80289 | 35891 ft | 475 kts | 263° |
| 2026-04-27 03:24 | -4.62036 | 123.74295 | 35868 ft | 476 kts | 263° |
| 2026-04-27 03:25 | -4.62501 | 123.69721 | 35881 ft | 481 kts | 263° |
| 2026-04-27 03:25 | -4.63181 | 123.63024 | 35884 ft | 483 kts | 263° |
| 2026-04-27 03:26 | -4.63862 | 123.56360 | 35887 ft | 483 kts | 263° |
| 2026-04-27 03:26 | -4.64544 | 123.49663 | 35889 ft | 483 kts | 263° |
| 2026-04-27 03:27 | -4.65231 | 123.42961 | 35908 ft | 483 kts | 263° |
| 2026-04-27 03:27 | -4.65909 | 123.36264 | 35924 ft | 482 kts | 263° |
| 2026-04-27 03:28 | -4.66587 | 123.29575 | 35908 ft | 482 kts | 263° |
| 2026-04-27 03:28 | -4.67263 | 123.22880 | 35867 ft | 482 kts | 263° |
| 2026-04-27 03:29 | -4.67936 | 123.16188 | 35835 ft | 482 kts | 263° |
| 2026-04-27 03:29 | -4.68620 | 123.09529 | 35837 ft | 482 kts | 263° |
| 2026-04-27 03:30 | -4.69292 | 123.02843 | 35872 ft | 481 kts | 263° |
| 2026-04-27 03:30 | -4.69969 | 122.96165 | 35865 ft | 482 kts | 263° |
| 2026-04-27 03:31 | -4.70645 | 122.89485 | 35879 ft | 482 kts | 263° |
| 2026-04-27 03:31 | -4.71318 | 122.82790 | 35877 ft | 482 kts | 263° |
| 2026-04-27 03:32 | -4.71990 | 122.76110 | 35896 ft | 482 kts | 263° |
| 2026-04-27 03:32 | -4.72662 | 122.69427 | 35920 ft | 482 kts | 263° |
| 2026-04-27 03:33 | -4.73341 | 122.62746 | 35922 ft | 482 kts | 263° |
| 2026-04-27 03:33 | -4.74001 | 122.56096 | 35922 ft | 482 kts | 263° |
| 2026-04-27 03:34 | -4.74679 | 122.49416 | 35921 ft | 481 kts | 263° |
| 2026-04-27 03:34 | -4.75340 | 122.42743 | 35892 ft | 480 kts | 263° |
| 2026-04-27 03:35 | -4.75791 | 122.38209 | 35864 ft | 480 kts | 263° |
| 2026-04-27 03:35 | -4.76466 | 122.31540 | 35835 ft | 481 kts | 263° |
| 2026-04-27 03:36 | -4.77138 | 122.24872 | 35835 ft | 481 kts | 263° |
| 2026-04-27 03:36 | -4.77791 | 122.18232 | 35863 ft | 481 kts | 263° |
| 2026-04-27 03:37 | -4.78457 | 122.11545 | 35905 ft | 481 kts | 263° |
| 2026-04-27 03:37 | -4.79130 | 122.04865 | 35924 ft | 481 kts | 263° |
| 2026-04-27 03:38 | -4.79791 | 121.98177 | 35924 ft | 481 kts | 263° |
| 2026-04-27 03:38 | -4.80458 | 121.91497 | 35924 ft | 481 kts | 263° |
| 2026-04-27 03:39 | -4.81122 | 121.84836 | 35912 ft | 480 kts | 263° |
| 2026-04-27 03:39 | -4.81782 | 121.78218 | 35872 ft | 480 kts | 263° |
| 2026-04-27 03:40 | -4.82440 | 121.71554 | 35831 ft | 480 kts | 263° |
| 2026-04-27 03:40 | -4.83103 | 121.64888 | 35828 ft | 480 kts | 263° |
| 2026-04-27 03:41 | -4.83764 | 121.58220 | 35834 ft | 480 kts | 263° |
| 2026-04-27 03:41 | -4.84423 | 121.51551 | 35823 ft | 480 kts | 263° |
| 2026-04-27 03:42 | -4.85076 | 121.44900 | 35842 ft | 477 kts | 264° |
| 2026-04-27 03:42 | -4.85406 | 121.41596 | 35948 ft | 475 kts | 264° |
| 2026-04-27 03:42 | -4.85733 | 121.38300 | 35950 ft | 478 kts | 264° |
| 2026-04-27 03:43 | -4.86388 | 121.31623 | 35970 ft | 482 kts | 264° |
| 2026-04-27 03:43 | -4.87044 | 121.24941 | 35851 ft | 481 kts | 263° |
| 2026-04-27 03:44 | -4.87701 | 121.18309 | 35852 ft | 481 kts | 264° |
| 2026-04-27 03:44 | -4.88353 | 121.11631 | 35872 ft | 481 kts | 264° |
| 2026-04-27 03:45 | -4.88722 | 121.07872 | 35881 ft | 481 kts | 264° |
| 2026-04-27 03:45 | -4.89385 | 121.01205 | 35906 ft | 480 kts | 264° |
| 2026-04-27 03:46 | -4.90038 | 120.94544 | 35870 ft | 480 kts | 264° |
| 2026-04-27 03:46 | -4.90682 | 120.87868 | 35847 ft | 481 kts | 264° |
| 2026-04-27 03:47 | -4.91344 | 120.81201 | 35842 ft | 481 kts | 264° |
| 2026-04-27 03:47 | -4.91990 | 120.74568 | 35838 ft | 481 kts | 264° |
| 2026-04-27 03:48 | -4.92641 | 120.67892 | 35845 ft | 481 kts | 264° |
| 2026-04-27 03:48 | -4.93291 | 120.61215 | 35850 ft | 481 kts | 264° |
| 2026-04-27 03:49 | -4.93939 | 120.54545 | 35858 ft | 481 kts | 264° |
| 2026-04-27 03:49 | -4.94589 | 120.47875 | 35871 ft | 481 kts | 264° |
| 2026-04-27 03:50 | -4.95241 | 120.41197 | 35881 ft | 481 kts | 264° |
| 2026-04-27 03:50 | -4.95884 | 120.34525 | 35894 ft | 481 kts | 264° |
| 2026-04-27 03:51 | -4.96525 | 120.27891 | 35904 ft | 481 kts | 264° |
| 2026-04-27 03:51 | -4.97180 | 120.21204 | 35918 ft | 481 kts | 264° |
| 2026-04-27 03:52 | -4.97824 | 120.14523 | 35921 ft | 481 kts | 264° |
| 2026-04-27 03:52 | -4.98469 | 120.07839 | 35922 ft | 481 kts | 264° |
| 2026-04-27 03:53 | -4.99126 | 120.01156 | 35922 ft | 481 kts | 264° |
| 2026-04-27 03:53 | -4.99767 | 119.94481 | 35906 ft | 481 kts | 264° |
| 2026-04-27 03:54 | -5.00400 | 119.87796 | 35865 ft | 481 kts | 264° |
| 2026-04-27 03:54 | -5.01048 | 119.81117 | 35830 ft | 482 kts | 264° |
| 2026-04-27 03:55 | -5.01361 | 119.77943 | 35833 ft | 482 kts | 264° |
| 2026-04-27 03:55 | -5.02000 | 119.71244 | 35842 ft | 483 kts | 264° |
| 2026-04-27 03:56 | -5.02641 | 119.64541 | 35878 ft | 482 kts | 264° |
| 2026-04-27 03:56 | -5.03280 | 119.57885 | 35909 ft | 482 kts | 264° |
| 2026-04-27 03:57 | -5.04273 | 119.51254 | 35912 ft | 481 kts | 252° |
| 2026-04-27 03:57 | -5.06503 | 119.44926 | 35893 ft | 481 kts | 248° |
| 2026-04-27 03:58 | -5.08904 | 119.38651 | 35889 ft | 481 kts | 249° |
| 2026-04-27 03:58 | -5.11180 | 119.32344 | 35895 ft | 481 kts | 250° |
| 2026-04-27 03:59 | -5.13430 | 119.26017 | 35911 ft | 481 kts | 249° |
| 2026-04-27 03:59 | -5.15738 | 119.19717 | 35912 ft | 481 kts | 249° |
| 2026-04-27 04:00 | -5.18034 | 119.13418 | 35881 ft | 481 kts | 249° |
| 2026-04-27 04:00 | -5.20303 | 119.07102 | 35862 ft | 481 kts | 249° |
| 2026-04-27 04:01 | -5.22598 | 119.00798 | 35826 ft | 481 kts | 249° |
| 2026-04-27 04:01 | -5.24882 | 118.94528 | 35839 ft | 481 kts | 249° |
| 2026-04-27 04:02 | -5.27161 | 118.88191 | 35837 ft | 482 kts | 249° |
| 2026-04-27 04:02 | -5.29446 | 118.81854 | 35837 ft | 483 kts | 249° |
| 2026-04-27 04:03 | -5.31753 | 118.75527 | 35893 ft | 483 kts | 249° |
| 2026-04-27 04:03 | -5.34047 | 118.69194 | 35919 ft | 482 kts | 249° |
| 2026-04-27 04:04 | -5.36323 | 118.62871 | 35919 ft | 481 kts | 249° |
| 2026-04-27 04:04 | -5.38565 | 118.56664 | 35900 ft | 480 kts | 249° |
| 2026-04-27 04:05 | -5.39687 | 118.53564 | 35880 ft | 479 kts | 249° |
| 2026-04-27 04:05 | -5.41961 | 118.47286 | 35839 ft | 479 kts | 249° |
| 2026-04-27 04:06 | -5.44216 | 118.41045 | 35832 ft | 479 kts | 249° |
| 2026-04-27 04:06 | -5.46486 | 118.34741 | 35830 ft | 479 kts | 249° |
| 2026-04-27 04:07 | -5.49895 | 118.25288 | 35835 ft | 481 kts | 249° |
| 2026-04-27 04:07 | -5.51795 | 118.20030 | 35873 ft | 482 kts | 249° |
| 2026-04-27 04:08 | -5.54073 | 118.13710 | 35927 ft | 482 kts | 249° |
| 2026-04-27 04:08 | -5.56347 | 118.07385 | 35922 ft | 481 kts | 249° |
| 2026-04-27 04:09 | -5.58619 | 118.01078 | 35914 ft | 480 kts | 249° |
| 2026-04-27 04:09 | -5.60898 | 117.94769 | 35874 ft | 480 kts | 249° |
| 2026-04-27 04:10 | -5.63170 | 117.88454 | 35834 ft | 481 kts | 249° |
| 2026-04-27 04:10 | -5.65444 | 117.82146 | 35834 ft | 481 kts | 249° |
| 2026-04-27 04:11 | -5.67719 | 117.75825 | 35846 ft | 481 kts | 249° |
| 2026-04-27 04:11 | -5.69988 | 117.69505 | 35842 ft | 481 kts | 249° |
| 2026-04-27 04:12 | -5.72262 | 117.63182 | 35857 ft | 481 kts | 249° |
| 2026-04-27 04:12 | -5.74535 | 117.56869 | 35865 ft | 481 kts | 249° |
| 2026-04-27 04:13 | -5.76816 | 117.50552 | 35853 ft | 481 kts | 250° |
| 2026-04-27 04:13 | -5.79084 | 117.44234 | 35875 ft | 480 kts | 249° |
| 2026-04-27 04:14 | -5.81339 | 117.37937 | 35844 ft | 482 kts | 249° |
| 2026-04-27 04:14 | -5.83343 | 117.32354 | 35843 ft | 482 kts | 249° |
| 2026-04-27 04:15 | -5.84285 | 117.29737 | 35852 ft | 483 kts | 249° |
| 2026-04-27 04:15 | -5.86555 | 117.23400 | 35870 ft | 483 kts | 250° |
| 2026-04-27 04:16 | -5.88353 | 117.16908 | 35860 ft | 483 kts | 259° |
| 2026-04-27 04:16 | -5.89668 | 117.10285 | 35863 ft | 483 kts | 253° |
| 2026-04-27 04:17 | -5.91728 | 117.03865 | 35860 ft | 483 kts | 250° |
| 2026-04-27 04:17 | -5.93906 | 116.97474 | 35882 ft | 483 kts | 251° |
| 2026-04-27 04:18 | -5.95940 | 116.91033 | 35898 ft | 483 kts | 252° |
| 2026-04-27 04:18 | -5.97958 | 116.84632 | 35912 ft | 484 kts | 252° |
| 2026-04-27 04:19 | -6.00046 | 116.78213 | 35911 ft | 484 kts | 252° |
| 2026-04-27 04:19 | -6.02117 | 116.71765 | 35870 ft | 484 kts | 252° |
| 2026-04-27 04:20 | -6.04174 | 116.65319 | 35830 ft | 485 kts | 252° |
| 2026-04-27 04:20 | -6.06242 | 116.58850 | 35834 ft | 486 kts | 252° |
| 2026-04-27 04:21 | -6.08295 | 116.52422 | 35835 ft | 487 kts | 252° |
| 2026-04-27 04:21 | -6.10374 | 116.45955 | 35884 ft | 486 kts | 252° |
| 2026-04-27 04:22 | -6.12454 | 116.39484 | 35923 ft | 486 kts | 252° |
| 2026-04-27 04:22 | -6.14518 | 116.33017 | 35923 ft | 486 kts | 252° |
| 2026-04-27 04:23 | -6.16580 | 116.26545 | 35918 ft | 486 kts | 252° |
| 2026-04-27 04:23 | -6.18651 | 116.20085 | 35905 ft | 486 kts | 252° |
| 2026-04-27 04:24 | -6.20716 | 116.13613 | 35889 ft | 486 kts | 252° |
| 2026-04-27 04:24 | -6.22779 | 116.07136 | 35886 ft | 486 kts | 252° |
| 2026-04-27 04:25 | -6.22954 | 116.06588 | 35886 ft | 486 kts | 252° |
| 2026-04-27 04:25 | -6.25023 | 116.00117 | 35882 ft | 486 kts | 252° |
| 2026-04-27 04:26 | -6.27072 | 115.93682 | 35880 ft | 486 kts | 252° |
| 2026-04-27 04:26 | -6.29137 | 115.87212 | 35874 ft | 486 kts | 252° |
| 2026-04-27 04:27 | -6.31198 | 115.80745 | 35854 ft | 486 kts | 252° |
| 2026-04-27 04:27 | -6.33266 | 115.74254 | 35822 ft | 486 kts | 252° |
| 2026-04-27 04:28 | -6.35318 | 115.67784 | 35808 ft | 486 kts | 252° |
| 2026-04-27 04:28 | -6.37381 | 115.61316 | 35805 ft | 486 kts | 252° |
| 2026-04-27 04:29 | -6.39430 | 115.54881 | 35811 ft | 486 kts | 252° |
| 2026-04-27 04:29 | -6.41484 | 115.48392 | 35819 ft | 486 kts | 252° |
| 2026-04-27 04:30 | -6.43545 | 115.41903 | 35805 ft | 487 kts | 252° |
| 2026-04-27 04:30 | -6.45612 | 115.35401 | 35838 ft | 487 kts | 252° |
| 2026-04-27 04:31 | -6.47671 | 115.28914 | 35896 ft | 486 kts | 252° |
| 2026-04-27 04:31 | -6.49714 | 115.22473 | 35893 ft | 487 kts | 252° |
| 2026-04-27 04:32 | -6.51772 | 115.15988 | 35896 ft | 486 kts | 252° |
| 2026-04-27 04:32 | -6.53822 | 115.09505 | 35890 ft | 486 kts | 252° |
| 2026-04-27 04:33 | -6.55872 | 115.03028 | 35862 ft | 486 kts | 252° |
| 2026-04-27 04:33 | -6.57926 | 114.96552 | 35821 ft | 486 kts | 252° |
| 2026-04-27 04:34 | -6.59973 | 114.90079 | 35806 ft | 486 kts | 253° |
| 2026-04-27 04:34 | -6.62026 | 114.83585 | 35805 ft | 487 kts | 252° |
| 2026-04-27 04:35 | -6.62447 | 114.82257 | 35811 ft | 487 kts | 252° |
| 2026-04-27 04:35 | -6.64512 | 114.75731 | 35867 ft | 486 kts | 253° |
| 2026-04-27 04:36 | -6.66542 | 114.69291 | 35890 ft | 486 kts | 253° |
| 2026-04-27 04:36 | -6.68588 | 114.62810 | 35886 ft | 487 kts | 253° |
| 2026-04-27 04:37 | -6.70638 | 114.56322 | 35856 ft | 487 kts | 253° |
| 2026-04-27 04:37 | -6.72687 | 114.49823 | 35851 ft | 487 kts | 253° |
| 2026-04-27 04:38 | -6.74740 | 114.43307 | 35850 ft | 487 kts | 253° |
| 2026-04-27 04:38 | -6.76788 | 114.36807 | 35854 ft | 487 kts | 253° |
| 2026-04-27 04:39 | -6.78833 | 114.30324 | 35726 ft | 484 kts | 253° |
| 2026-04-27 04:39 | -6.79845 | 114.27112 | 35228 ft | 480 kts | 253° |
| 2026-04-27 04:39 | -6.80854 | 114.23898 | 34394 ft | 483 kts | 252° |
| 2026-04-27 04:40 | -6.81873 | 114.20650 | 33458 ft | 489 kts | 252° |
| 2026-04-27 04:40 | -6.82900 | 114.17385 | 32780 ft | 487 kts | 252° |
| 2026-04-27 04:40 | -6.83920 | 114.14144 | 32117 ft | 485 kts | 252° |
| 2026-04-27 04:40 | -6.84942 | 114.10897 | 31178 ft | 489 kts | 252° |
| 2026-04-27 04:41 | -6.85962 | 114.07655 | 30122 ft | 495 kts | 252° |
| 2026-04-27 04:41 | -6.87006 | 114.04332 | 29286 ft | 496 kts | 252° |
| 2026-04-27 04:41 | -6.88048 | 114.01014 | 28780 ft | 499 kts | 252° |
| 2026-04-27 04:41 | -6.89098 | 113.97669 | 28222 ft | 502 kts | 252° |
| 2026-04-27 04:42 | -6.90150 | 113.94315 | 27623 ft | 503 kts | 252° |
| 2026-04-27 04:42 | -6.91205 | 113.90952 | 26984 ft | 505 kts | 252° |
| 2026-04-27 04:42 | -6.92265 | 113.87572 | 26339 ft | 506 kts | 252° |
| 2026-04-27 04:42 | -6.93328 | 113.84187 | 25694 ft | 508 kts | 252° |
| 2026-04-27 04:43 | -6.94392 | 113.80795 | 25076 ft | 509 kts | 252° |
| 2026-04-27 04:43 | -6.95458 | 113.77390 | 24403 ft | 511 kts | 252° |
| 2026-04-27 04:43 | -6.96510 | 113.74030 | 23748 ft | 508 kts | 252° |
| 2026-04-27 04:43 | -6.97586 | 113.70589 | 23104 ft | 508 kts | 252° |
| 2026-04-27 04:44 | -6.98644 | 113.67219 | 22462 ft | 503 kts | 252° |
| 2026-04-27 04:44 | -6.99678 | 113.63924 | 21824 ft | 498 kts | 252° |
| 2026-04-27 04:44 | -7.00713 | 113.60614 | 21180 ft | 493 kts | 252° |
| 2026-04-27 04:44 | -7.01735 | 113.57342 | 20548 ft | 487 kts | 252° |
| 2026-04-27 04:45 | -7.02117 | 113.56116 | 20321 ft | 486 kts | 252° |
| 2026-04-27 04:45 | -7.02479 | 113.54960 | 20110 ft | 484 kts | 252° |
| 2026-04-27 04:45 | -7.03490 | 113.51737 | 19488 ft | 480 kts | 252° |
| 2026-04-27 04:46 | -7.04486 | 113.48557 | 18853 ft | 474 kts | 252° |
| 2026-04-27 04:46 | -7.05471 | 113.45403 | 18255 ft | 470 kts | 252° |
| 2026-04-27 04:46 | -7.06446 | 113.42277 | 17668 ft | 466 kts | 252° |
| 2026-04-27 04:46 | -7.07412 | 113.39178 | 17056 ft | 461 kts | 252° |
| 2026-04-27 04:47 | -7.08365 | 113.36121 | 16458 ft | 457 kts | 252° |
| 2026-04-27 04:47 | -7.09313 | 113.33083 | 15862 ft | 452 kts | 252° |
| 2026-04-27 04:47 | -7.10251 | 113.30079 | 15265 ft | 448 kts | 252° |
| 2026-04-27 04:47 | -7.11176 | 113.27104 | 14699 ft | 444 kts | 252° |
| 2026-04-27 04:48 | -7.12097 | 113.24158 | 14136 ft | 439 kts | 252° |
| 2026-04-27 04:48 | -7.13015 | 113.21243 | 13597 ft | 435 kts | 252° |
| 2026-04-27 04:48 | -7.13926 | 113.18350 | 13077 ft | 431 kts | 252° |
| 2026-04-27 04:48 | -7.14821 | 113.15476 | 12577 ft | 428 kts | 252° |
| 2026-04-27 04:49 | -7.15705 | 113.12624 | 12000 ft | 424 kts | 252° |
| 2026-04-27 04:49 | -7.16579 | 113.09804 | 11356 ft | 420 kts | 252° |
| 2026-04-27 04:49 | -7.17447 | 113.07013 | 10754 ft | 416 kts | 252° |
| 2026-04-27 04:49 | -7.18302 | 113.04276 | 10225 ft | 413 kts | 252° |
| 2026-04-27 04:50 | -7.19156 | 113.01541 | 9507 ft | 407 kts | 252° |
| 2026-04-27 04:50 | -7.19997 | 112.98838 | 8648 ft | 402 kts | 252° |
| 2026-04-27 04:50 | -7.20826 | 112.96169 | 7806 ft | 397 kts | 252° |
| 2026-04-27 04:50 | -7.21647 | 112.93539 | 6973 ft | 392 kts | 252° |
| 2026-04-27 04:51 | -7.22456 | 112.90935 | 6145 ft | 387 kts | 252° |
| 2026-04-27 04:51 | -7.23250 | 112.88368 | 5326 ft | 382 kts | 252° |
| 2026-04-27 04:51 | -7.24035 | 112.85836 | 4595 ft | 375 kts | 252° |
| 2026-04-27 04:51 | -7.24801 | 112.83371 | 4219 ft | 359 kts | 252° |
| 2026-04-27 04:52 | -7.25524 | 112.81037 | 4018 ft | 341 kts | 252° |
| 2026-04-27 04:52 | -7.26212 | 112.78808 | 3864 ft | 325 kts | 252° |
| 2026-04-27 04:52 | -7.26871 | 112.76689 | 3737 ft | 309 kts | 251° |
| 2026-04-27 04:52 | -7.27500 | 112.74673 | 3639 ft | 295 kts | 251° |
| 2026-04-27 04:53 | -7.27904 | 112.73389 | 3598 ft | 285 kts | 251° |
| 2026-04-27 04:53 | -7.28482 | 112.71524 | 3525 ft | 273 kts | 251° |
| 2026-04-27 04:53 | -7.29028 | 112.69750 | 3523 ft | 257 kts | 251° |
| 2026-04-27 04:53 | -7.29539 | 112.68085 | 3540 ft | 241 kts | 246° |
| 2026-04-27 04:54 | -7.30022 | 112.66522 | 3534 ft | 226 kts | 245° |
| 2026-04-27 04:54 | -7.30475 | 112.65066 | 3510 ft | 209 kts | 243° |
| 2026-04-27 04:54 | -7.30893 | 112.63708 | 3362 ft | 197 kts | 240° |
| 2026-04-27 04:54 | -7.31277 | 112.62433 | 3167 ft | 183 kts | 239° |
| 2026-04-27 04:55 | -7.31571 | 112.61460 | 3007 ft | 172 kts | 238° |
| 2026-04-27 04:55 | -7.31877 | 112.60550 | 2830 ft | 156 kts | 233° |
| 2026-04-27 04:56 | -7.32619 | 112.59915 | 2783 ft | 137 kts | 209° |
| 2026-04-27 04:56 | -7.33529 | 112.59793 | 2874 ft | 132 kts | 198° |
| 2026-04-27 04:56 | -7.34433 | 112.60087 | 2888 ft | 146 kts | 181° |
| 2026-04-27 04:56 | -7.35213 | 112.60904 | 2906 ft | 189 kts | 155° |
| 2026-04-27 04:57 | -7.35605 | 112.62365 | 2730 ft | 240 kts | 124° |
| 2026-04-27 04:57 | -7.35682 | 112.64019 | 2657 ft | 228 kts | 124° |
| 2026-04-27 04:57 | -7.35820 | 112.65538 | 2457 ft | 209 kts | 129° |
| 2026-04-27 04:57 | -7.36046 | 112.66944 | 2225 ft | 199 kts | 131° |
| 2026-04-27 04:58 | -7.36308 | 112.68293 | 1925 ft | 202 kts | 127° |
| 2026-04-27 04:58 | -7.36548 | 112.69743 | 1579 ft | 209 kts | 118° |
| 2026-04-27 04:58 | -7.36764 | 112.71173 | 1397 ft | 198 kts | 116° |
| 2026-04-27 04:58 | -7.36969 | 112.72478 | 1093 ft | 184 kts | 114° |
| 2026-04-27 04:59 | -7.37164 | 112.73677 | 894 ft | 160 kts | 111° |
| 2026-04-27 04:59 | -7.37339 | 112.74734 | 599 ft | 150 kts | 107° |
| 2026-04-27 04:59 | -7.37509 | 112.75726 | 358 ft | 137 kts | 104° |
| 2026-04-27 04:59 | -7.37663 | 112.76635 | 172 ft | 127 kts | 98° |
| 2026-04-27 05:00 | -7.37795 | 112.77514 | 64 ft | 128 kts | 98° |
| 2026-04-27 05:00 | -7.37925 | 112.78327 | 24 ft | 93 kts | 99° |
| 2026-04-27 05:00 | -7.37983 | 112.78693 | 23 ft | 35 kts | 99° |
| 2026-04-27 05:00 | -7.37974 | 112.78846 | 23 ft | 18 kts | 31° |
| 2026-04-27 05:01 | -7.37853 | 112.78873 | 23 ft | 19 kts | 9° |
| 2026-04-27 05:01 | -7.37713 | 112.78896 | 23 ft | 21 kts | 8° |
| 2026-04-27 05:01 | -7.37633 | 112.78908 | 23 ft | 9 kts | 9° |
| 2026-04-27 05:01 | -7.37620 | 112.78910 | 23 ft | 2 kts | 9° |
| 2026-04-27 05:02 | -7.37599 | 112.78927 | 23 ft | 6 kts | 65° |
| 2026-04-27 05:02 | -7.37602 | 112.78993 | 23 ft | 13 kts | 99° |
| 2026-04-27 05:02 | -7.37627 | 112.79154 | 23 ft | 6 kts | 87° |
| 2026-04-27 05:03 | -7.37589 | 112.79177 | 23 ft | 8 kts | 8° |
| 2026-04-27 05:03 | -7.37571 | 112.79179 | 23 ft | 2 kts | 9° |
| 2026-04-27 05:03 | -7.37553 | 112.79182 | 23 ft | 0 kts | 9° |
| 2026-04-27 05:03 | -7.37542 | 112.79184 | 23 ft | 0 kts | 9° |
| 2026-04-27 05:04 | -7.37541 | 112.79184 | 23 ft | 0 kts | 7° |
| 2026-04-27 05:04 | -7.37537 | 112.79185 | 23 ft | 1 kts | 8° |
| 2026-04-27 05:04 | -7.37533 | 112.79186 | 23 ft | 0 kts | 9° |
| 2026-04-27 05:04 | -7.37537 | 112.79185 | 23 ft | 1 kts | 9° |